Poinciana, Florida
Current Conditions -  °F | °C
As of 9:50 PM on Friday 28 Nov 2014 (Local Time) from KISM Reporting Station
Clear Clear  
Wind Chill: 52°   Ceiling: Unl
Heat Index: 52°   Visibility: 10mi
Dew Point: 45°   Wind: 7mph
Humidity: 76%   Direction: 340°NNW
Pressure: 30.3"   Gusts: NA
Location:  28.0946°N, 81.4211°W
Report Text: KISM 290250Z 34006KT 10SM SKC 11/07 A3030 RMK LAST
Loading
Personal Weather Stations






























Interactive Weather Map New forecast layout! Learn more

10-Day Weather Forecast

Advertisements
Track Severe Weather on mobile